createdAt,value
2022-12-12T04:38:44.571Z,39.30
2022-12-12T04:41:17.072Z,39.63
2022-12-12T04:43:48.976Z,42.67
2022-12-12T04:46:22.628Z,45.30
2022-12-12T04:48:58.991Z,45.20
2022-12-12T06:06:48.752Z,44.53
2022-12-12T06:09:16.223Z,42.27
2022-12-12T06:14:57.613Z,43.83
2022-12-12T06:17:29.706Z,40.73
2022-12-12T06:20:00.830Z,43.27
2022-12-12T06:22:28.267Z,45.67
2022-12-12T06:24:55.592Z,40.00
2022-12-12T06:27:23.330Z,37.17
2022-12-12T06:29:50.629Z,42.20
2022-12-12T06:32:17.936Z,44.97
2022-12-12T06:34:45.524Z,40.90
2022-12-12T06:37:17.235Z,40.80
2022-12-12T06:39:46.056Z,41.37
2022-12-12T06:42:14.524Z,45.13
2022-12-12T06:44:41.973Z,40.63
2022-12-12T06:47:09.344Z,43.27
2022-12-12T06:49:36.990Z,44.60
2022-12-12T06:52:04.522Z,47.70
2022-12-12T06:54:31.806Z,41.50
2022-12-12T06:56:59.172Z,43.20
2022-12-12T06:59:28.910Z,38.87
2022-12-12T07:01:57.312Z,39.67
2022-12-12T07:04:25.773Z,44.13
2022-12-12T07:06:54.805Z,44.87
2022-12-12T07:09:22.432Z,44.63
2022-12-12T07:11:49.853Z,44.63
2022-12-12T07:14:17.250Z,41.57
2022-12-12T07:16:44.856Z,38.00
2022-12-12T07:19:12.243Z,39.07
2022-12-12T07:21:39.592Z,40.10
2022-12-12T07:24:07.164Z,37.73
2022-12-12T07:26:34.534Z,37.23
2022-12-12T07:29:04.277Z,35.47
2022-12-12T07:31:32.260Z,36.30
2022-12-12T07:34:00.155Z,38.47
2022-12-12T07:36:27.474Z,43.00
2022-12-12T07:38:54.993Z,41.33
2022-12-12T07:41:22.617Z,42.03
2022-12-12T07:43:51.073Z,38.70
2022-12-12T07:46:25.190Z,39.50
2022-12-12T07:48:53.913Z,38.93
2022-12-12T07:51:21.765Z,39.43
2022-12-12T07:53:50.202Z,42.33
2022-12-12T07:56:20.102Z,44.03
2022-12-12T07:58:49.562Z,41.43
2022-12-12T08:01:20.598Z,41.23
2022-12-12T08:03:49.578Z,40.00
2022-12-12T08:06:18.056Z,38.37
2022-12-12T08:08:46.920Z,38.33
2022-12-12T08:11:20.288Z,41.03
2022-12-12T08:13:48.425Z,41.13
2022-12-12T08:16:25.246Z,44.40
2022-12-12T08:18:57.617Z,45.73
2022-12-12T08:21:27.061Z,37.43
2022-12-12T08:24:02.464Z,35.57
2022-12-12T08:26:30.928Z,42.13
2022-12-12T08:28:58.930Z,42.57
2022-12-12T08:31:27.314Z,38.57
2022-12-12T08:33:55.279Z,40.00
2022-12-12T08:36:31.571Z,38.33
2022-12-12T08:39:03.751Z,39.10
2022-12-12T08:41:31.525Z,38.23
2022-12-12T08:43:58.892Z,36.23
2022-12-12T08:46:26.300Z,38.57
2022-12-12T08:48:53.831Z,34.07
2022-12-12T08:51:21.469Z,31.87
2022-12-12T08:53:51.350Z,38.70
2022-12-12T08:56:20.935Z,41.57
2022-12-12T08:58:48.962Z,40.00
2022-12-12T09:01:22.992Z,35.93
2022-12-12T09:03:52.296Z,36.50
2022-12-12T09:06:20.783Z,37.93
2022-12-12T09:08:48.642Z,36.87
2022-12-12T09:11:17.244Z,33.03
2022-12-12T09:13:45.417Z,35.87
2022-12-12T09:16:13.453Z,38.13
2022-12-12T09:18:48.208Z,37.60
2022-12-12T09:21:17.575Z,36.23
2022-12-12T09:23:45.326Z,46.27
2022-12-12T09:26:12.707Z,38.50
2022-12-12T09:28:40.403Z,36.43
2022-12-12T09:31:09.479Z,41.83
2022-12-12T09:33:37.061Z,41.80
2022-12-12T09:36:07.881Z,39.50
2022-12-12T09:38:36.183Z,41.70
2022-12-12T09:41:09.826Z,41.37
2022-12-12T09:43:53.389Z,40.20
2022-12-12T09:46:28.008Z,40.50
2022-12-12T09:49:02.778Z,40.13
2022-12-12T09:51:30.476Z,40.43
2022-12-12T09:53:58.001Z,38.17
2022-12-12T09:56:37.144Z,39.13
2022-12-12T09:59:16.915Z,43.50
2022-12-12T10:02:22.038Z,38.20
2022-12-12T10:05:01.639Z,43.97
2022-12-12T10:07:52.854Z,41.37
2022-12-12T10:10:20.339Z,39.47
2022-12-12T10:12:48.704Z,42.53
2022-12-12T10:15:39.504Z,45.03
2022-12-12T10:18:14.907Z,48.30
2022-12-12T10:20:49.972Z,45.87
2022-12-12T10:23:41.920Z,52.40
2022-12-12T10:26:16.973Z,45.93
2022-12-12T10:28:46.204Z,53.93
2022-12-12T10:31:26.270Z,53.70
2022-12-12T10:34:09.411Z,48.37
2022-12-12T10:37:06.989Z,58.73
2022-12-12T10:39:57.291Z,49.23
2022-12-12T10:42:36.098Z,45.13
2022-12-12T10:45:06.268Z,45.37
2022-12-12T10:47:34.973Z,44.50
2022-12-12T10:50:13.519Z,48.20
2022-12-12T10:52:41.294Z,48.97
2022-12-12T10:55:23.787Z,53.93
2022-12-12T10:58:02.194Z,45.23
2022-12-12T11:00:36.230Z,48.87
2022-12-12T11:03:26.579Z,49.37
2022-12-12T11:05:57.961Z,49.43
2022-12-12T11:08:31.227Z,55.17
2022-12-12T11:11:19.579Z,46.90
2022-12-12T11:13:55.258Z,46.63
2022-12-12T11:16:26.230Z,45.93
2022-12-12T11:19:16.519Z,45.47
2022-12-12T11:21:45.665Z,58.43
2022-12-12T11:24:18.844Z,48.03
2022-12-12T11:26:57.978Z,50.07
2022-12-12T11:29:52.835Z,52.13
2022-12-12T11:35:45.553Z,46.27
2022-12-12T11:38:40.088Z,43.50
2022-12-12T11:41:11.327Z,41.17
2022-12-12T11:43:55.065Z,47.23
2022-12-12T11:46:33.527Z,44.90
2022-12-12T11:49:03.594Z,48.10
2022-12-12T11:51:44.103Z,47.70
2022-12-12T11:54:19.507Z,43.00
2022-12-12T11:56:57.714Z,38.50
2022-12-12T11:59:41.640Z,45.10
2022-12-12T12:02:33.160Z,51.80
2022-12-12T12:05:01.418Z,50.97
2022-12-12T12:07:57.081Z,48.90
2022-12-12T12:10:44.239Z,47.33
2022-12-12T12:13:41.762Z,50.40
2022-12-12T12:16:15.938Z,46.83
2022-12-12T12:19:14.367Z,43.43
2022-12-12T12:22:03.765Z,44.63
2022-12-12T12:24:50.673Z,47.00
2022-12-12T12:27:45.139Z,52.80
2022-12-12T12:30:17.588Z,45.73
2022-12-12T12:33:24.223Z,42.97
2022-12-12T12:36:05.808Z,45.43
2022-12-12T12:38:55.024Z,41.40
2022-12-12T12:41:31.141Z,41.30
2022-12-12T12:44:16.791Z,40.93
2022-12-12T12:46:52.677Z,41.23
2022-12-12T12:49:28.729Z,42.63
2022-12-12T12:52:19.740Z,38.03
2022-12-12T12:54:51.579Z,43.23
2022-12-12T12:57:25.191Z,39.90
2022-12-12T12:59:57.791Z,37.80
2022-12-12T13:02:41.227Z,40.43
2022-12-12T13:05:30.620Z,41.30
2022-12-12T13:08:13.615Z,41.57
2022-12-12T13:10:51.020Z,42.67
2022-12-12T13:13:31.215Z,43.03
2022-12-12T13:16:13.192Z,47.03
2022-12-12T13:18:45.506Z,41.73
2022-12-12T13:21:39.452Z,45.47
2022-12-12T13:24:40.178Z,43.30
2022-12-12T13:27:28.939Z,40.60
2022-12-12T13:30:10.060Z,47.37
2022-12-12T13:32:59.416Z,43.47
2022-12-12T13:35:40.146Z,44.73
2022-12-12T13:38:21.922Z,42.93
2022-12-12T13:40:58.522Z,47.50
2022-12-12T13:43:30.327Z,37.67
2022-12-12T13:45:57.821Z,39.83
2022-12-12T13:48:29.141Z,39.67
2022-12-12T13:51:27.817Z,37.67
2022-12-12T13:54:12.814Z,40.30
2022-12-12T13:56:48.275Z,37.73
2022-12-12T13:59:27.640Z,39.70
2022-12-12T14:02:18.570Z,38.80
2022-12-12T14:04:46.794Z,37.43
2022-12-12T14:07:17.777Z,37.50
2022-12-12T14:09:51.190Z,36.60
2022-12-12T14:12:30.713Z,38.10
2022-12-12T14:15:18.259Z,36.80
2022-12-12T14:18:00.749Z,34.97
2022-12-12T14:20:33.527Z,33.63
2022-12-12T14:23:10.778Z,38.77
2022-12-12T14:25:40.333Z,36.73
2022-12-12T14:28:22.719Z,36.10
2022-12-12T14:31:22.348Z,39.13
2022-12-12T14:34:05.406Z,36.67
2022-12-12T14:37:06.394Z,37.17
2022-12-12T14:39:53.656Z,35.23
2022-12-12T14:43:19.208Z,31.37
2022-12-12T14:45:44.044Z,32.70
2022-12-12T14:48:20.360Z,30.53
2022-12-12T14:50:56.216Z,35.00
2022-12-12T14:53:29.030Z,33.07
2022-12-12T14:56:02.949Z,34.87
2022-12-12T14:58:33.882Z,30.60
2022-12-12T15:01:03.677Z,30.70
2022-12-12T15:03:38.434Z,33.37
2022-12-12T15:06:24.953Z,38.43
2022-12-12T15:08:53.517Z,34.77
2022-12-12T15:11:24.691Z,33.20
2022-12-12T15:13:54.676Z,36.73
2022-12-12T15:16:32.331Z,34.43
2022-12-12T15:19:02.094Z,38.03
2022-12-12T15:21:33.217Z,31.23
2022-12-12T15:24:01.099Z,30.10
2022-12-12T15:26:36.849Z,37.10
2022-12-12T15:29:04.681Z,33.57
2022-12-12T15:31:35.481Z,37.20
2022-12-12T15:34:02.928Z,35.87
2022-12-12T15:36:31.783Z,35.93
2022-12-12T15:39:17.691Z,40.07
2022-12-12T15:41:45.968Z,36.50
2022-12-12T15:44:20.023Z,41.07
2022-12-12T15:46:50.586Z,36.90
2022-12-12T15:49:38.323Z,39.27
2022-12-12T15:52:11.479Z,45.67
2022-12-12T15:54:46.077Z,38.43
2022-12-12T15:57:25.530Z,34.70
2022-12-12T16:00:08.585Z,41.17
2022-12-12T16:02:36.102Z,36.97
2022-12-12T16:05:20.548Z,36.27
2022-12-12T16:07:48.016Z,34.50
2022-12-12T16:10:15.671Z,35.77
2022-12-12T16:12:56.427Z,39.80
2022-12-12T16:15:37.078Z,49.37
2022-12-12T16:18:17.653Z,44.53
2022-12-12T16:20:51.970Z,34.20
2022-12-12T16:23:31.686Z,36.03
2022-12-12T16:25:59.888Z,38.20
2022-12-12T16:28:29.714Z,33.30
2022-12-12T16:31:00.524Z,35.17
2022-12-12T16:33:39.589Z,44.80
2022-12-12T16:36:10.130Z,50.00
2022-12-12T16:38:40.090Z,44.53
2022-12-12T16:41:17.044Z,37.00
2022-12-12T16:43:44.915Z,40.63
2022-12-12T16:46:26.564Z,35.87
2022-12-12T16:48:54.546Z,43.80
2022-12-12T16:51:30.540Z,39.17
2022-12-12T16:53:58.199Z,39.70
2022-12-12T16:56:25.965Z,34.83
2022-12-12T16:58:53.498Z,43.23
2022-12-12T17:01:21.185Z,37.93
2022-12-12T17:03:48.726Z,39.23
2022-12-12T17:06:16.935Z,39.67
2022-12-12T17:08:45.164Z,37.90
2022-12-12T17:11:46.048Z,39.30
2022-12-12T17:14:22.098Z,38.47
2022-12-12T17:16:50.694Z,42.80
2022-12-12T17:19:18.023Z,41.50
2022-12-12T17:21:45.599Z,37.70
2022-12-12T17:24:13.230Z,36.80
2022-12-12T17:26:40.896Z,39.73
2022-12-12T17:29:08.491Z,38.87
2022-12-12T17:31:36.556Z,39.50
2022-12-12T17:34:04.526Z,45.70
2022-12-12T17:36:31.956Z,44.73
2022-12-12T17:38:59.396Z,43.40
2022-12-12T17:41:27.096Z,41.07
2022-12-12T17:43:56.155Z,44.97
2022-12-12T17:46:24.983Z,40.60
2022-12-12T17:48:53.023Z,42.50
2022-12-12T17:51:23.820Z,44.47
2022-12-12T17:53:52.529Z,41.60
2022-12-12T17:56:22.915Z,40.17
2022-12-12T17:58:50.517Z,40.00
2022-12-12T18:01:33.780Z,40.60
2022-12-12T18:04:02.776Z,43.57
2022-12-12T18:06:33.299Z,42.27
2022-12-12T18:09:01.092Z,41.23
2022-12-12T18:11:33.468Z,44.00
2022-12-12T18:14:06.051Z,46.03
2022-12-12T18:16:34.549Z,47.67
2022-12-12T18:19:03.034Z,49.53
2022-12-12T18:21:59.913Z,46.33
2022-12-12T18:24:22.289Z,45.33
2022-12-12T18:26:54.571Z,45.97
2022-12-12T18:29:22.577Z,41.97
2022-12-12T18:31:49.939Z,42.27
2022-12-12T18:34:17.840Z,45.13
2022-12-12T18:36:45.291Z,42.50
2022-12-12T18:39:13.068Z,51.10
2022-12-12T18:41:40.408Z,49.00
2022-12-12T18:44:10.604Z,45.97
2022-12-12T18:46:42.748Z,50.83
2022-12-12T18:49:15.870Z,48.73
2022-12-12T18:51:45.180Z,49.13
2022-12-12T18:54:15.553Z,47.90
2022-12-12T18:56:45.944Z,45.33
2022-12-12T18:59:14.020Z,42.53
2022-12-12T19:01:41.750Z,49.33
2022-12-12T19:04:12.593Z,40.13
2022-12-12T19:06:43.089Z,48.30
2022-12-12T19:09:15.721Z,47.57
2022-12-12T19:11:48.171Z,42.03
2022-12-12T19:14:16.894Z,40.80
2022-12-12T19:16:45.160Z,40.63
2022-12-12T19:19:15.057Z,39.53
2022-12-12T19:21:44.050Z,40.90
2022-12-12T19:24:14.109Z,40.03
2022-12-12T19:26:43.914Z,40.57
2022-12-12T19:29:15.476Z,36.83
2022-12-12T19:31:43.469Z,37.07
2022-12-12T19:34:13.005Z,40.30
2022-12-12T19:36:40.544Z,39.23
2022-12-12T19:39:10.462Z,39.27
2022-12-12T19:41:37.879Z,42.07
2022-12-12T19:44:08.593Z,43.10
2022-12-12T19:46:36.121Z,44.17
2022-12-12T19:49:08.337Z,41.47
2022-12-12T19:51:39.014Z,45.20
2022-12-12T19:54:10.077Z,43.97
2022-12-12T19:56:43.832Z,44.50
2022-12-12T19:59:13.133Z,54.57
2022-12-12T20:01:41.475Z,49.93
2022-12-12T20:04:21.844Z,52.40
2022-12-12T20:06:50.662Z,51.27
2022-12-12T20:09:21.341Z,42.10
2022-12-12T20:11:49.790Z,53.10
2022-12-12T20:14:20.303Z,48.57
2022-12-12T20:16:49.776Z,43.20
2022-12-12T20:19:18.631Z,44.87
2022-12-12T20:22:04.040Z,48.10
2022-12-12T20:24:33.299Z,41.60
2022-12-12T20:27:03.423Z,46.43
2022-12-12T20:29:31.242Z,42.27
2022-12-12T20:32:01.695Z,44.27
2022-12-12T20:34:29.662Z,40.60
2022-12-12T20:36:57.541Z,47.23
2022-12-12T20:39:26.281Z,40.37
2022-12-12T20:41:54.483Z,43.50
2022-12-12T20:44:24.110Z,41.00
2022-12-12T20:46:52.536Z,41.93
2022-12-12T20:49:22.345Z,37.07
2022-12-12T20:51:56.315Z,44.73
2022-12-12T20:54:26.025Z,41.93
2022-12-12T20:56:54.901Z,37.23
2022-12-12T20:59:22.909Z,42.23
2022-12-12T21:01:50.567Z,54.27
2022-12-12T21:04:18.459Z,47.33
2022-12-12T21:06:50.918Z,49.20
2022-12-12T21:09:25.052Z,40.60
2022-12-12T21:11:58.363Z,44.53
2022-12-12T21:14:27.750Z,40.07
2022-12-12T21:16:55.347Z,47.70
2022-12-12T21:19:23.488Z,46.07
2022-12-12T21:21:52.147Z,40.57
2022-12-12T21:24:20.345Z,40.73
2022-12-12T21:26:48.630Z,43.10
2022-12-12T21:29:16.513Z,41.90
2022-12-12T21:31:51.147Z,47.17
2022-12-12T21:34:22.240Z,42.37
2022-12-12T21:36:51.694Z,42.17
2022-12-12T21:39:20.179Z,41.33
2022-12-12T21:41:47.920Z,42.50
2022-12-12T21:44:15.481Z,44.97
2022-12-12T21:46:44.266Z,44.10
2022-12-12T21:49:28.125Z,40.67
2022-12-12T21:52:03.681Z,39.80
2022-12-12T21:54:32.133Z,39.90
2022-12-12T21:57:00.293Z,39.10
2022-12-12T21:59:28.360Z,42.10
2022-12-12T22:02:00.754Z,43.43
2022-12-12T22:04:28.567Z,44.97
2022-12-12T22:06:57.980Z,41.17
2022-12-12T22:09:26.421Z,42.80
2022-12-12T22:12:03.621Z,40.13
2022-12-12T22:14:33.261Z,43.67
2022-12-12T22:17:03.219Z,43.97
2022-12-12T22:19:31.082Z,41.80
2022-12-12T22:21:59.076Z,47.10
2022-12-12T22:24:27.131Z,45.83
2022-12-12T22:26:54.655Z,47.17
2022-12-12T22:29:22.885Z,42.83
2022-12-12T22:31:52.296Z,44.00
2022-12-12T22:34:23.638Z,39.60
2022-12-12T22:36:52.446Z,46.00
2022-12-12T22:39:24.655Z,42.37
2022-12-12T22:41:52.837Z,43.73
2022-12-12T22:44:23.352Z,44.60
2022-12-12T22:46:52.867Z,47.43
2022-12-12T22:49:25.869Z,41.53
2022-12-12T22:51:58.816Z,43.87
2022-12-12T22:54:27.277Z,46.47
2022-12-12T22:56:55.163Z,49.23
2022-12-12T22:59:25.191Z,48.13
2022-12-12T23:01:55.775Z,44.17
2022-12-12T23:04:24.130Z,44.17
2022-12-12T23:06:52.420Z,44.17
2022-12-12T23:09:23.453Z,44.70
2022-12-12T23:11:51.525Z,45.13
2022-12-12T23:14:22.606Z,46.67
2022-12-12T23:16:51.231Z,44.63
2022-12-12T23:19:25.859Z,37.70
2022-12-12T23:21:53.526Z,48.00
2022-12-12T23:24:21.019Z,46.07
2022-12-12T23:26:51.275Z,44.27
2022-12-12T23:29:20.279Z,43.53
2022-12-12T23:31:49.112Z,44.07
2022-12-12T23:34:20.910Z,44.93
2022-12-12T23:36:49.992Z,46.77
2022-12-12T23:39:18.972Z,45.67
2022-12-12T23:41:46.551Z,46.83
2022-12-12T23:44:16.523Z,46.27
2022-12-12T23:46:44.186Z,43.17
2022-12-12T23:49:21.338Z,46.87
2022-12-12T23:51:51.508Z,47.17
2022-12-12T23:54:24.742Z,43.33
2022-12-12T23:56:52.907Z,46.67
2022-12-12T23:59:21.976Z,44.40
